Time;durP1;ratioP1;P1;durP2;ratioP2;P2;SDS_P1;SDS_P2;PMS_P1;PMS_P2;Temp;Humidity;BMP_temperature;BMP_pressure;BME280_temperature;BME280_humidity;BME280_pressure;Samples;Min_cycle;Max_cycle;Signal;HPM_P1;HPM_P2
2022/03/06 00:01:26;;;;;;;18.08;2.90;;;;;;;-149.78;100.00;50539.91;4789103;29;20472;-70
2022/03/06 00:03:51;;;;;;;11.18;2.40;;;;;;;-149.78;100.00;50557.50;4789848;29;20380;-69
2022/03/06 00:06:18;;;;;;;14.23;3.28;;;;;;;-149.78;100.00;50547.72;4789729;29;20039;-69
2022/03/06 00:08:43;;;;;;;11.55;2.88;;;;;;;-149.78;100.00;50549.69;4805747;29;20537;-69
2022/03/06 00:11:10;;;;;;;14.80;3.03;;;;;;;-149.78;100.00;50563.38;4804005;29;20122;-69
2022/03/06 00:13:36;;;;;;;16.13;3.17;;;;;;;-149.78;100.00;50553.59;4786489;29;20130;-68
2022/03/06 00:16:03;;;;;;;14.35;3.17;;;;;;;-149.78;100.00;50551.63;4818111;29;20046;-69
2022/03/06 00:18:29;;;;;;;9.18;2.50;;;;;;;-149.78;100.00;50596.63;4823992;29;20065;-69
2022/03/06 00:20:55;;;;;;;7.80;2.42;;;;;;;-149.78;100.00;50530.13;4823924;29;20554;-70
2022/03/06 00:23:21;;;;;;;10.35;2.47;;;;;;;-149.78;100.00;50584.88;4811680;29;20039;-69
2022/03/06 00:25:47;;;;;;;19.02;3.90;;;;;;;-149.78;100.00;50547.72;4789582;29;20031;-69
2022/03/06 00:28:13;;;;;;;9.35;2.38;;;;;;;-149.78;100.00;50551.63;4804497;29;20544;-70
2022/03/06 00:30:40;;;;;;;11.32;2.40;;;;;;;-149.78;100.00;50573.16;4804472;29;20043;-70
2022/03/06 00:33:06;;;;;;;13.48;2.45;;;;;;;-149.78;100.00;50553.59;4812148;29;20058;-70
2022/03/06 00:35:32;;;;;;;14.63;3.08;;;;;;;-149.78;100.00;50541.84;4823594;29;20542;-69
2022/03/06 00:37:58;;;;;;;14.02;2.78;;;;;;;-149.78;100.00;50530.13;4807534;29;20089;-69
2022/03/06 00:40:25;;;;;;;8.25;2.45;;;;;;;-149.78;100.00;50573.16;4823843;29;20050;-69
2022/03/06 00:42:51;;;;;;;12.93;2.25;;;;;;;-149.78;100.00;50563.38;4823886;29;20043;-69
2022/03/06 00:45:17;;;;;;;12.82;2.60;;;;;;;-149.78;100.00;50534.03;4822656;29;20046;-70
2022/03/06 00:47:42;;;;;;;19.17;3.13;;;;;;;-149.78;100.00;50561.41;4806701;29;20053;-69
2022/03/06 00:50:09;;;;;;;10.13;2.55;;;;;;;-149.78;100.00;50534.03;4805402;29;20042;-70
2022/03/06 00:52:34;;;;;;;13.60;2.70;;;;;;;-149.78;100.00;50577.06;4805398;29;20035;-69
2022/03/06 00:55:00;;;;;;;11.60;3.05;;;;;;;-149.78;100.00;50561.41;4805351;29;20039;-69
2022/03/06 00:57:26;;;;;;;11.45;2.83;;;;;;;-149.78;100.00;50537.94;4789352;29;20042;-70
2022/03/06 00:59:52;;;;;;;13.05;3.30;;;;;;;-149.78;100.00;50549.69;4805504;29;20049;-69
2022/03/06 01:02:18;;;;;;;12.45;2.85;;;;;;;-149.78;100.00;50594.66;4789015;29;20045;-70
2022/03/06 01:04:44;;;;;;;8.18;2.45;;;;;;;-149.78;100.00;50541.84;4804190;29;20049;-69
2022/03/06 01:07:10;;;;;;;9.00;2.42;;;;;;;-149.78;100.00;50573.16;4803979;29;20039;-70
2022/03/06 01:09:35;;;;;;;19.10;2.75;;;;;;;-149.78;100.00;50557.50;4804266;29;20039;-70
2022/03/06 01:12:01;;;;;;;10.70;2.42;;;;;;;-149.78;100.00;50565.31;4805397;29;20100;-69
2022/03/06 01:14:27;;;;;;;12.93;2.55;;;;;;;-149.78;100.00;50545.75;4811338;29;20038;-70
2022/03/06 01:16:53;;;;;;;15.20;2.83;;;;;;;-149.78;100.00;50549.69;4826544;29;20038;-70
2022/03/06 01:19:19;;;;;;;9.77;2.63;;;;;;;-149.78;100.00;50553.59;4810316;29;20134;-70
2022/03/06 01:21:47;;;;;;;14.20;2.60;;;;;;;-149.78;100.00;50553.59;4825260;29;20061;-69
2022/03/06 01:24:13;;;;;;;12.52;2.65;;;;;;;-149.78;100.00;50571.19;4808982;29;20043;-69
2022/03/06 01:26:38;;;;;;;12.52;2.70;;;;;;;-149.78;100.00;50561.41;4808362;29;20038;-69
2022/03/06 01:29:04;;;;;;;11.40;2.80;;;;;;;-149.78;100.00;50561.41;4807084;29;20046;-69
2022/03/06 01:31:30;;;;;;;12.38;3.42;;;;;;;-149.78;100.00;50592.72;4807046;29;20454;-68
2022/03/06 01:33:56;;;;;;;9.85;2.47;;;;;;;-149.78;100.00;50553.59;4820986;29;20069;-69
2022/03/06 01:36:22;;;;;;;11.43;2.63;;;;;;;-149.78;100.00;50582.94;4810112;29;20039;-69
2022/03/06 01:38:47;;;;;;;14.45;2.83;;;;;;;-149.78;100.00;50537.94;4826330;29;20046;-69
2022/03/06 01:41:13;;;;;;;15.00;3.30;;;;;;;-149.78;100.00;50577.06;4826131;29;20053;-69
2022/03/06 01:43:39;;;;;;;12.85;2.45;;;;;;;-149.78;100.00;50573.16;4826070;29;20070;-69
2022/03/06 01:46:05;;;;;;;10.57;3.17;;;;;;;-149.78;100.00;50557.50;4821317;29;20066;-69
2022/03/06 01:48:31;;;;;;;18.60;3.00;;;;;;;-149.78;100.00;50588.78;4806878;29;20046;-69
2022/03/06 01:50:56;;;;;;;14.63;3.10;;;;;;;-149.78;100.00;50573.16;4807820;29;20091;-69
2022/03/06 01:53:22;;;;;;;17.17;3.58;;;;;;;-149.78;100.00;50561.41;4808004;29;20564;-69
2022/03/06 01:55:48;;;;;;;16.52;3.33;;;;;;;-149.78;100.00;50557.50;4791614;29;20515;-69
2022/03/06 01:58:14;;;;;;;13.15;3.17;;;;;;;-149.78;100.00;50551.63;4807860;29;20404;-69
2022/03/06 02:00:44;;;;;;;9.68;3.17;;;;;;;-149.78;100.00;50551.63;4806686;29;20042;-69
2022/03/06 02:03:11;;;;;;;11.77;2.95;;;;;;;-149.78;100.00;50561.41;4807855;29;20038;-69
2022/03/06 02:05:38;;;;;;;18.92;3.17;;;;;;;-149.78;100.00;50565.31;4791676;29;20088;-69
2022/03/06 02:08:07;;;;;;;14.45;2.58;;;;;;;-149.78;100.00;50537.94;4806432;29;20042;-69
2022/03/06 02:10:35;;;;;;;16.00;3.63;;;;;;;-149.78;100.00;50547.72;4776438;29;20099;-69
2022/03/06 02:13:00;;;;;;;23.20;2.67;;;;;;;-149.78;100.00;50569.22;4807559;29;20046;-69
2022/03/06 02:15:26;;;;;;;10.32;2.80;;;;;;;-149.78;100.00;50569.22;4818095;29;20049;-69
2022/03/06 02:17:52;;;;;;;12.77;2.83;;;;;;;-149.78;100.00;50549.69;4809428;29;20140;-69
2022/03/06 02:20:20;;;;;;;11.20;2.85;;;;;;;-149.78;100.00;50592.72;4825601;29;20522;-69
2022/03/06 02:22:49;;;;;;;12.95;3.13;;;;;;;-149.78;100.00;50624.00;4818907;29;20399;-69
2022/03/06 02:25:20;;;;;;;9.02;2.97;;;;;;;-149.78;100.00;50561.41;4806550;29;20031;-69
2022/03/06 02:27:48;;;;;;;12.82;3.15;;;;;;;-149.78;100.00;50579.00;4812039;29;20498;-68
2022/03/06 02:30:16;;;;;;;16.83;3.50;;;;;;;-149.78;100.00;50596.63;4810832;29;20082;-69
2022/03/06 02:32:47;;;;;;;13.25;3.25;;;;;;;-149.78;100.00;50561.41;4824535;29;20050;-69
2022/03/06 02:35:14;;;;;;;16.17;2.75;;;;;;;-149.78;100.00;50549.69;4823541;29;20487;-69
2022/03/06 02:37:40;;;;;;;15.98;2.85;;;;;;;-149.78;100.00;50596.63;4823685;29;20048;-69
2022/03/06 02:40:08;;;;;;;14.45;2.72;;;;;;;-149.78;100.00;50584.88;4807611;29;20043;-69
2022/03/06 02:42:38;;;;;;;12.25;2.53;;;;;;;-149.78;100.00;50557.50;4808200;29;20043;-69
2022/03/06 02:45:18;;;;;;;15.35;2.78;;;;;;;-149.78;100.00;50580.97;4824637;29;20042;-69
2022/03/06 02:47:46;;;;;;;9.50;2.40;;;;;;;-149.78;100.00;50588.78;4807634;29;20073;-69
2022/03/06 02:50:18;;;;;;;9.45;2.75;;;;;;;-149.78;100.00;50545.75;4799047;29;20079;-69
2022/03/06 02:52:44;;;;;;;13.07;2.70;;;;;;;-149.78;100.00;50559.47;4806346;29;20043;-68
2022/03/06 02:55:10;;;;;;;10.50;2.88;;;;;;;-149.78;100.00;50600.53;4806417;29;20392;-69
2022/03/06 02:57:36;;;;;;;11.02;2.65;;;;;;;-149.78;100.00;50534.03;4806440;29;20062;-68
2022/03/06 03:00:05;;;;;;;15.52;4.22;;;;;;;-149.78;100.00;50588.78;4778501;29;20034;-69
2022/03/06 03:02:31;;;;;;;7.63;2.70;;;;;;;-149.78;100.00;50543.81;4824511;29;20038;-69
2022/03/06 03:04:57;;;;;;;6.35;2.50;;;;;;;-149.78;100.00;50557.50;4823410;29;20034;-69
2022/03/06 03:07:23;;;;;;;12.60;2.67;;;;;;;-149.78;100.00;50592.72;4813848;29;20049;-69
2022/03/06 03:09:49;;;;;;;7.13;2.78;;;;;;;-149.78;100.00;50547.72;4775030;29;20047;-69
2022/03/06 03:12:15;;;;;;;14.48;2.90;;;;;;;-149.78;100.00;50631.81;4805284;29;20404;-69
2022/03/06 03:14:40;;;;;;;7.03;2.40;;;;;;;-149.78;100.00;50545.75;4806185;29;20046;-69
2022/03/06 03:17:08;;;;;;;11.65;2.47;;;;;;;-149.78;100.00;50561.41;4805087;29;20607;-69
2022/03/06 03:19:34;;;;;;;15.50;2.45;;;;;;;-149.78;100.00;50561.41;4806005;29;20047;-68
2022/03/06 03:22:00;;;;;;;13.80;2.40;;;;;;;-149.78;100.00;50561.41;4806265;29;20035;-69
2022/03/06 03:24:26;;;;;;;9.07;2.45;;;;;;;-149.78;100.00;50573.16;4788970;29;20103;-69
2022/03/06 03:26:51;;;;;;;10.40;2.65;;;;;;;-149.78;100.00;50547.72;4789658;29;20039;-68
2022/03/06 03:29:18;;;;;;;6.95;2.08;;;;;;;-149.78;100.00;50557.50;4789804;29;20517;-69
2022/03/06 03:31:44;;;;;;;6.93;2.35;;;;;;;-149.78;100.00;50592.72;4789794;29;20080;-69
2022/03/06 03:34:10;;;;;;;7.30;2.10;;;;;;;-149.78;100.00;50532.06;4808873;29;20057;-69
2022/03/06 03:36:36;;;;;;;15.02;2.45;;;;;;;-149.78;100.00;50577.06;4822797;29;20198;-69
2022/03/06 03:39:03;;;;;;;9.45;2.55;;;;;;;-149.78;100.00;50549.69;4792736;29;20046;-69
2022/03/06 03:41:28;;;;;;;10.25;2.20;;;;;;;-149.78;100.00;50537.94;4824117;29;20568;-68
2022/03/06 03:43:54;;;;;;;10.88;2.30;;;;;;;-149.78;100.00;50563.38;4808937;29;20042;-69
2022/03/06 03:46:20;;;;;;;9.18;2.45;;;;;;;-149.78;100.00;50561.41;4816062;29;20468;-69
2022/03/06 03:48:45;;;;;;;13.35;2.42;;;;;;;-149.78;100.00;50534.03;4819093;29;20046;-69
2022/03/06 03:51:11;;;;;;;9.68;2.97;;;;;;;-149.78;100.00;50537.94;4807164;29;20043;-69
2022/03/06 03:53:37;;;;;;;10.80;2.88;;;;;;;-149.78;100.00;50549.69;4807205;29;20082;-69
2022/03/06 03:56:07;;;;;;;10.55;3.50;;;;;;;-149.78;100.00;50561.41;4822460;29;20122;-68
2022/03/06 03:58:33;;;;;;;11.60;3.50;;;;;;;-149.78;100.00;50590.75;4813369;29;20059;-68
2022/03/06 04:00:59;;;;;;;7.15;2.75;;;;;;;-149.78;100.00;50573.16;4815887;29;20038;-68
2022/03/06 04:03:25;;;;;;;8.07;2.47;;;;;;;-149.78;100.00;50592.72;4807085;29;20046;-69
2022/03/06 04:05:51;;;;;;;15.95;3.45;;;;;;;-149.78;100.00;50594.66;4823491;29;20030;-68
2022/03/06 04:08:18;;;;;;;11.50;2.97;;;;;;;-149.78;100.00;50557.50;4823423;29;20049;-68
2022/03/06 04:10:44;;;;;;;15.50;3.10;;;;;;;-149.78;100.00;50579.00;4807093;29;20046;-69
2022/03/06 04:13:12;;;;;;;14.10;3.72;;;;;;;-149.78;100.00;50571.19;4822234;29;20054;-68
2022/03/06 04:15:37;;;;;;;18.80;3.03;;;;;;;-149.78;100.00;50561.41;4821996;29;20429;-69
2022/03/06 04:18:05;;;;;;;18.35;3.20;;;;;;;-149.78;100.00;50580.97;4823368;29;20138;-69
2022/03/06 04:20:31;;;;;;;15.55;3.63;;;;;;;-149.78;100.00;50584.88;4822165;29;20084;-69
2022/03/06 04:22:57;;;;;;;17.63;3.35;;;;;;;-149.78;100.00;50553.59;4822044;29;20054;-69
2022/03/06 04:25:23;;;;;;;8.18;2.88;;;;;;;-149.78;100.00;50545.75;4823240;29;20048;-69
2022/03/06 04:27:49;;;;;;;10.63;2.90;;;;;;;-149.78;100.00;50577.06;4810359;29;20042;-69
2022/03/06 04:30:15;;;;;;;18.05;2.65;;;;;;;-149.78;100.00;50569.22;4822854;29;20042;-68
2022/03/06 04:32:41;;;;;;;11.57;2.55;;;;;;;-149.78;100.00;50604.44;4791357;29;20054;-68
2022/03/06 04:35:08;;;;;;;11.75;2.78;;;;;;;-149.78;100.00;50584.88;4822878;29;20034;-69
2022/03/06 04:37:34;;;;;;;8.93;2.05;;;;;;;-149.78;100.00;50604.44;4821659;29;20073;-68
2022/03/06 04:40:01;;;;;;;16.77;2.47;;;;;;;-149.78;100.00;50575.09;4822859;29;20499;-69
2022/03/06 04:42:26;;;;;;;19.13;2.50;;;;;;;-149.78;100.00;50565.31;4822865;29;20125;-69
2022/03/06 04:44:52;;;;;;;6.15;2.15;;;;;;;-149.78;100.00;50557.50;4822618;29;20121;-68
2022/03/06 04:47:17;;;;;;;6.90;1.90;;;;;;;-149.78;100.00;50584.88;4806283;29;20043;-68
2022/03/06 04:49:43;;;;;;;10.73;2.65;;;;;;;-149.78;100.00;50573.16;4824813;29;20042;-69
2022/03/06 04:52:09;;;;;;;15.10;2.15;;;;;;;-149.78;100.00;50557.50;4815551;29;20043;-69
2022/03/06 04:54:34;;;;;;;11.88;2.65;;;;;;;-149.78;100.00;50551.63;4791747;29;20043;-69
2022/03/06 04:57:03;;;;;;;10.13;2.25;;;;;;;-149.78;100.00;50592.72;4791532;29;20499;-68
2022/03/06 04:59:28;;;;;;;14.82;2.90;;;;;;;-149.78;100.00;50565.31;4788595;30;20078;-69
2022/03/06 05:01:55;;;;;;;11.50;2.90;;;;;;;-149.78;100.00;50592.72;4807857;29;20526;-69
2022/03/06 05:04:21;;;;;;;9.27;2.58;;;;;;;-149.78;100.00;50555.53;4809600;29;20398;-69
2022/03/06 05:06:46;;;;;;;11.10;2.70;;;;;;;-149.78;100.00;50541.84;4824539;29;20489;-69
2022/03/06 05:09:12;;;;;;;11.40;2.67;;;;;;;-149.78;100.00;50577.06;4809562;29;20135;-69
2022/03/06 05:11:38;;;;;;;7.55;2.70;;;;;;;-149.78;100.00;50600.53;4825648;29;20391;-69
2022/03/06 05:14:03;;;;;;;16.02;3.03;;;;;;;-149.78;100.00;50565.31;4809568;29;20050;-68
2022/03/06 05:16:29;;;;;;;12.73;3.42;;;;;;;-149.78;100.00;50557.50;4824469;29;20043;-69
2022/03/06 05:18:56;;;;;;;11.20;3.05;;;;;;;-149.78;100.00;50534.03;4825690;29;20121;-69
2022/03/06 05:21:23;;;;;;;10.50;2.90;;;;;;;-149.78;100.00;50582.94;4809568;29;20502;-68
2022/03/06 05:23:48;;;;;;;12.73;2.60;;;;;;;-149.78;100.00;50608.34;4809375;29;20046;-68
2022/03/06 05:26:15;;;;;;;18.35;2.97;;;;;;;-149.78;100.00;50596.63;4825503;29;20038;-68
2022/03/06 05:28:43;;;;;;;12.23;3.17;;;;;;;-149.78;100.00;50571.19;4825291;29;20062;-69
2022/03/06 05:31:09;;;;;;;8.10;2.80;;;;;;;-149.78;100.00;50573.16;4824329;29;20039;-69
2022/03/06 05:33:35;;;;;;;17.02;2.50;;;;;;;-149.78;100.00;50580.97;4825161;29;20050;-69
2022/03/06 05:36:01;;;;;;;11.88;2.22;;;;;;;-149.78;100.00;50624.00;4825166;29;20043;-69
2022/03/06 05:38:27;;;;;;;8.05;2.35;;;;;;;-149.78;100.00;50573.16;4825411;29;20044;-68
2022/03/06 05:40:53;;;;;;;14.23;3.17;;;;;;;-149.78;100.00;50553.59;4825225;29;20042;-69
2022/03/06 05:43:18;;;;;;;10.70;3.13;;;;;;;-149.78;100.00;50612.25;4794055;29;20046;-69
2022/03/06 05:45:50;;;;;;;11.13;2.40;;;;;;;-149.78;100.00;50547.72;4824127;29;20125;-69
2022/03/06 05:48:19;;;;;;;11.93;2.28;;;;;;;-149.78;100.00;50602.47;4825161;29;20039;-69
2022/03/06 05:50:46;;;;;;;13.35;2.42;;;;;;;-149.78;100.00;50565.31;4823841;29;20038;-68
2022/03/06 05:53:12;;;;;;;16.88;2.70;;;;;;;-149.78;100.00;50561.41;4823910;29;20048;-68
2022/03/06 05:55:38;;;;;;;10.50;2.30;;;;;;;-149.78;100.00;50588.78;4824909;29;20042;-68
2022/03/06 05:58:04;;;;;;;10.38;2.60;;;;;;;-149.78;100.00;50614.22;4803459;29;20075;-69
2022/03/06 06:00:31;;;;;;;9.05;2.33;;;;;;;-149.78;100.00;50596.63;4805682;29;20119;-69
2022/03/06 06:02:57;;;;;;;13.88;3.13;;;;;;;-149.78;100.00;50594.66;4805549;29;20415;-69
2022/03/06 06:05:24;;;;;;;11.02;2.38;;;;;;;-149.78;100.00;50600.53;4805712;29;20043;-69
2022/03/06 06:07:51;;;;;;;12.57;2.55;;;;;;;-149.78;100.00;50577.06;4806781;29;20043;-69
2022/03/06 06:10:17;;;;;;;9.70;2.60;;;;;;;-149.78;100.00;50580.97;4790645;29;20047;-69
2022/03/06 06:12:44;;;;;;;9.18;2.55;;;;;;;-149.78;100.00;50612.25;4790675;29;20106;-69
2022/03/06 06:15:10;;;;;;;13.57;2.60;;;;;;;-149.78;100.00;50580.97;4806696;29;20039;-69
2022/03/06 06:17:36;;;;;;;11.07;2.83;;;;;;;-149.78;100.00;50573.16;4790416;29;20127;-68
2022/03/06 06:20:05;;;;;;;12.35;3.08;;;;;;;-149.78;100.00;50610.31;4806624;29;20042;-69
2022/03/06 06:22:31;;;;;;;20.35;2.70;;;;;;;-149.78;100.00;50590.75;4805288;29;20396;-68
2022/03/06 06:24:58;;;;;;;11.90;2.95;;;;;;;-149.78;100.00;50616.19;4805116;29;20035;-69
2022/03/06 06:27:24;;;;;;;13.73;2.97;;;;;;;-149.78;100.00;50604.44;4805283;29;20464;-69
2022/03/06 06:29:50;;;;;;;13.25;2.95;;;;;;;-149.78;100.00;50586.84;4790419;29;20783;-69
2022/03/06 06:32:16;;;;;;;13.70;3.53;;;;;;;-149.78;100.00;50561.41;4806412;29;20125;-68
2022/03/06 06:34:42;;;;;;;13.02;3.22;;;;;;;-149.78;100.00;50561.41;4807355;29;20065;-69
2022/03/06 06:37:08;;;;;;;18.80;4.05;;;;;;;-149.78;100.00;50582.94;4824518;29;20053;-68
2022/03/06 06:39:34;;;;;;;15.82;3.20;;;;;;;-149.78;100.00;50573.16;4807866;29;20050;-69
2022/03/06 06:42:01;;;;;;;18.20;3.85;;;;;;;-149.78;100.00;50592.72;4824413;29;20045;-69
2022/03/06 06:44:27;;;;;;;21.80;4.38;;;;;;;-149.78;100.00;50612.25;4824339;29;20065;-68
2022/03/06 06:46:52;;;;;;;16.00;3.50;;;;;;;-149.78;100.00;50598.56;4807881;29;20115;-68
2022/03/06 06:49:18;;;;;;;14.25;3.70;;;;;;;-149.78;100.00;50575.09;4807851;29;20034;-69
2022/03/06 06:51:44;;;;;;;11.20;3.22;;;;;;;-149.78;100.00;50624.00;4824085;29;20547;-69
2022/03/06 06:54:09;;;;;;;14.27;3.22;;;;;;;-149.78;100.00;50592.72;4823023;29;20555;-69
2022/03/06 06:56:35;;;;;;;13.63;3.10;;;;;;;-149.78;100.00;50588.78;4802511;29;20027;-69
2022/03/06 06:59:01;;;;;;;36.50;5.22;;;;;;;-149.78;100.00;50561.41;4789228;29;20522;-68
2022/03/06 07:01:27;;;;;;;18.05;3.50;;;;;;;-149.78;100.00;50571.19;4785588;29;20126;-69
2022/03/06 07:03:52;;;;;;;11.25;4.25;;;;;;;-149.78;100.00;50561.41;4797021;29;20137;-69
2022/03/06 07:06:18;;;;;;;16.15;3.65;;;;;;;-149.78;100.00;50596.63;4787991;29;20408;-69
2022/03/06 07:08:44;;;;;;;15.52;3.28;;;;;;;-149.78;100.00;50553.59;4791026;29;20076;-69
2022/03/06 07:11:10;;;;;;;13.60;3.40;;;;;;;-149.78;100.00;50579.00;4804535;29;20042;-68
2022/03/06 07:13:35;;;;;;;22.15;3.42;;;;;;;-149.78;100.00;50588.78;4798698;29;20046;-69
2022/03/06 07:16:02;;;;;;;18.10;3.55;;;;;;;-149.78;100.00;50573.16;4788444;29;20035;-69
2022/03/06 07:18:28;;;;;;;16.40;3.35;;;;;;;-149.78;100.00;50569.22;4803173;29;20038;-69
2022/03/06 07:20:54;;;;;;;19.17;3.03;;;;;;;-149.78;100.00;50586.84;4800466;29;20773;-69
2022/03/06 07:23:20;;;;;;;11.50;3.35;;;;;;;-149.78;100.00;50557.50;4787164;29;20061;-69
2022/03/06 07:25:46;;;;;;;14.90;2.72;;;;;;;-149.78;100.00;50565.31;4784679;29;20041;-68
2022/03/06 07:28:12;;;;;;;13.20;3.05;;;;;;;-149.78;100.00;50592.72;4798434;29;20399;-69
2022/03/06 07:30:37;;;;;;;11.75;2.80;;;;;;;-149.78;100.00;50565.31;4786407;29;20058;-68
2022/03/06 07:33:04;;;;;;;12.98;2.67;;;;;;;-149.78;100.00;50573.16;4801859;29;20057;-68
2022/03/06 07:35:30;;;;;;;14.05;2.97;;;;;;;-149.78;100.00;50575.09;4785571;29;20507;-68
2022/03/06 07:37:56;;;;;;;10.35;2.75;;;;;;;-149.78;100.00;50565.31;4801774;29;20062;-68
2022/03/06 07:40:23;;;;;;;9.38;2.70;;;;;;;-149.78;100.00;50596.63;4797219;29;20031;-68
2022/03/06 07:42:49;;;;;;;15.95;2.95;;;;;;;-149.78;100.00;50573.16;4800267;29;20094;-68
2022/03/06 07:45:15;;;;;;;10.07;3.28;;;;;;;-149.78;100.00;50532.06;4781571;29;20495;-68
2022/03/06 07:47:41;;;;;;;15.43;3.58;;;;;;;-149.78;100.00;50573.16;4794440;29;20495;-68
2022/03/06 07:50:11;;;;;;;14.90;3.25;;;;;;;-149.78;100.00;50592.72;4799091;29;20042;-68
2022/03/06 07:52:38;;;;;;;15.50;3.60;;;;;;;-149.78;100.00;50557.50;4801181;29;20035;-68
2022/03/06 07:55:06;;;;;;;13.18;3.33;;;;;;;-149.78;100.00;50580.97;4799669;29;20131;-68
2022/03/06 07:57:32;;;;;;;13.63;3.58;;;;;;;-149.78;100.00;50579.00;4795047;29;20050;-69
2022/03/06 07:59:58;;;;;;;15.82;4.80;;;;;;;-149.78;100.00;50561.41;4782376;29;20043;-69
2022/03/06 08:02:24;;;;;;;12.25;4.10;;;;;;;-149.78;100.00;50545.75;4771639;29;20035;-68
2022/03/06 08:04:49;;;;;;;20.70;5.55;;;;;;;-149.78;100.00;50516.44;4798951;29;20027;-69
2022/03/06 08:07:15;;;;;;;18.38;5.20;;;;;;;-149.78;100.00;50534.03;4798559;29;20039;-69
2022/03/06 08:09:40;;;;;;;30.92;4.78;;;;;;;-149.78;100.00;50502.75;4796367;29;20038;-69
2022/03/06 08:12:06;;;;;;;19.65;5.40;;;;;;;-149.78;100.00;50494.91;4786524;29;20031;-70
2022/03/06 08:14:32;;;;;;;24.75;6.35;;;;;;;-149.78;100.00;50438.19;4789784;29;20481;-68
2022/03/06 08:16:58;;;;;;;23.30;6.47;;;;;;;-149.78;100.00;50424.50;4782106;29;20038;-68
2022/03/06 08:19:23;;;;;;;15.13;5.22;;;;;;;-149.78;100.00;50385.38;4794474;29;20046;-68
2022/03/06 08:21:49;;;;;;;24.27;5.93;;;;;;;-149.78;100.00;50416.69;4797625;29;20046;-67
2022/03/06 08:24:15;;;;;;;17.17;6.32;;;;;;;-149.78;100.00;50438.19;4803272;29;20091;-67
2022/03/06 08:26:41;;;;;;;13.95;2.60;;;;;;;-149.78;100.00;50436.25;4801794;29;20037;-66
2022/03/06 08:29:09;;;;;;;16.33;5.65;;;;;;;-149.78;100.00;50506.66;4803213;29;20111;-67
2022/03/06 08:31:34;;;;;;;11.80;3.83;;;;;;;-149.78;100.00;50498.81;4802597;29;20458;-67
2022/03/06 08:34:00;;;;;;;13.07;2.70;;;;;;;-149.78;100.00;50514.47;4790266;29;20050;-68
2022/03/06 08:36:26;;;;;;;13.88;3.83;;;;;;;-149.78;100.00;50524.25;4785909;29;20408;-66
2022/03/06 08:38:52;;;;;;;7.75;2.72;;;;;;;-149.78;100.00;50479.28;4787337;29;20047;-67
2022/03/06 08:41:17;;;;;;;15.52;2.50;;;;;;;-149.78;100.00;50514.47;4776243;29;20035;-68
2022/03/06 08:43:43;;;;;;;18.02;3.25;;;;;;;-149.78;100.00;50530.13;4804700;29;20039;-68
2022/03/06 08:46:09;;;;;;;17.50;3.67;;;;;;;-149.78;100.00;50530.13;4804059;29;20027;-68
2022/03/06 08:48:37;;;;;;;17.42;3.10;;;;;;;-149.78;100.00;50522.28;4794421;29;20038;-68
2022/03/06 08:51:06;;;;;;;17.45;2.65;;;;;;;-149.78;100.00;50537.94;4800169;29;20039;-68
2022/03/06 08:53:32;;;;;;;29.27;5.88;;;;;;;-149.78;100.00;50491.00;4774686;29;20035;-68
2022/03/06 08:55:59;;;;;;;38.85;9.70;;;;;;;-149.78;100.00;50440.16;4803288;29;20043;-68
2022/03/06 08:58:25;;;;;;;48.33;10.77;;;;;;;-149.78;100.00;50440.16;4805939;29;20035;-68
2022/03/06 09:00:51;;;;;;;31.52;7.65;;;;;;;-149.78;100.00;50383.44;4802605;29;20068;-68
2022/03/06 09:03:17;;;;;;;15.68;3.72;;;;;;;-149.78;100.00;50422.56;4789281;29;20039;-69
2022/03/06 09:05:42;;;;;;;17.55;4.15;;;;;;;-149.78;100.00;50467.53;4803832;29;20066;-69
2022/03/06 09:08:09;;;;;;;27.50;8.23;;;;;;;-149.78;100.00;50459.72;4804764;29;20058;-68
2022/03/06 09:10:37;;;;;;;39.58;10.65;;;;;;;-149.78;100.00;50510.56;4806755;29;20080;-68
2022/03/06 09:13:04;;;;;;;46.40;11.80;;;;;;;-149.78;100.00;50479.28;4804230;29;20054;-68
2022/03/06 09:15:30;;;;;;;34.50;8.85;;;;;;;-149.78;100.00;50491.00;4805868;29;20046;-68
2022/03/06 09:17:56;;;;;;;17.13;5.18;;;;;;;-149.78;100.00;50430.38;4798653;29;20168;-69
2022/03/06 09:20:22;;;;;;;24.35;6.25;;;;;;;-149.78;100.00;50412.78;4799922;29;20118;-68
2022/03/06 09:22:47;;;;;;;27.88;7.57;;;;;;;-149.78;100.00;50395.16;4800081;29;20039;-68
2022/03/06 09:25:13;;;;;;;14.43;4.18;;;;;;;-149.78;100.00;50428.41;4804164;29;20054;-69
2022/03/06 09:27:38;;;;;;;10.65;3.67;;;;;;;-149.78;100.00;50432.31;4805053;29;20041;-68
2022/03/06 09:30:06;;;;;;;23.90;7.88;;;;;;;-149.78;100.00;50406.91;4801520;29;20035;-68
2022/03/06 09:32:32;;;;;;;12.82;3.03;;;;;;;-149.78;100.00;50399.09;4802741;29;20027;-68
2022/03/06 09:34:57;;;;;;;23.63;7.47;;;;;;;-149.78;100.00;50385.38;4786650;29;20519;-68
2022/03/06 09:37:23;;;;;;;11.00;3.08;;;;;;;-149.78;100.00;50408.84;4771784;30;20051;-68
2022/03/06 09:39:49;;;;;;;10.77;3.65;;;;;;;-149.78;100.00;50432.31;4772586;30;20100;-68
2022/03/06 09:42:20;;;;;;;13.18;4.60;;;;;;;-149.78;100.00;50410.81;4761497;30;20047;-68
2022/03/06 09:44:47;;;;;;;14.30;3.22;;;;;;;-149.78;100.00;50479.28;4769680;30;20055;-67
2022/03/06 09:47:14;;;;;;;9.60;3.05;;;;;;;-149.78;100.00;50514.47;4769146;30;20046;-67
2022/03/06 09:49:43;;;;;;;17.92;4.63;;;;;;;-149.78;100.00;50459.72;4764419;30;20043;-67
2022/03/06 09:52:09;;;;;;;8.73;3.40;;;;;;;-149.78;100.00;50494.91;4781849;30;20039;-67
2022/03/06 09:54:35;;;;;;;14.45;3.28;;;;;;;-149.78;100.00;50487.09;4783161;30;20043;-67
2022/03/06 09:57:01;;;;;;;13.18;2.65;;;;;;;-149.78;100.00;50475.34;4770390;30;20404;-67
2022/03/06 09:59:27;;;;;;;13.23;3.17;;;;;;;-149.78;100.00;50483.19;4775809;30;20586;-67
2022/03/06 10:01:52;;;;;;;10.55;2.30;;;;;;;-149.78;100.00;50498.81;4786052;30;20043;-67
2022/03/06 10:04:29;;;;;;;10.25;2.67;;;;;;;-149.78;100.00;50479.28;4782156;29;20050;-67
2022/03/06 10:07:01;;;;;;;15.52;2.80;;;;;;;-149.78;100.00;50451.88;4764494;30;20054;-66
2022/03/06 10:09:28;;;;;;;8.80;2.35;;;;;;;-149.78;100.00;50514.47;4781203;30;20050;-66
2022/03/06 10:11:54;;;;;;;10.68;2.08;;;;;;;-149.78;100.00;50498.81;4778786;30;20074;-66
2022/03/06 10:14:39;;;;;;;11.38;2.03;;;;;;;-149.78;100.00;50498.81;4782388;30;20486;-66
2022/03/06 10:17:14;;;;;;;12.85;1.88;;;;;;;-149.78;100.00;50510.56;4774171;30;20114;-66
2022/03/06 10:20:06;;;;;;;9.70;2.03;;;;;;;-149.78;100.00;50522.28;4777883;30;20070;-67
2022/03/06 10:22:34;;;;;;;6.30;1.55;;;;;;;-149.78;100.00;50492.97;4773743;30;20126;-66
2022/03/06 10:25:16;;;;;;;8.20;1.98;;;;;;;-149.78;100.00;50522.28;4778902;30;20039;-67
2022/03/06 10:27:49;;;;;;;;;;;;;;;-149.78;100.00;50502.75;4780314;29;20093;-68
2022/03/06 10:30:38;;;;;;;8.35;2.08;;;;;;;-149.78;100.00;50473.41;4781367;30;19925;-67
2022/03/06 10:33:11;;;;;;;13.05;2.30;;;;;;;-149.78;100.00;50471.44;4783407;29;20196;-67
2022/03/06 10:35:39;;;;;;;5.47;1.80;;;;;;;-149.78;100.00;50436.25;4796862;29;20137;-67
2022/03/06 10:38:32;;;;;;;11.82;2.90;;;;;;;-149.78;100.00;50455.81;4784114;29;20149;-67
2022/03/06 10:41:02;;;;;;;9.52;3.50;;;;;;;-149.78;100.00;50432.31;4782770;29;20776;-66
2022/03/06 10:43:33;;;;;;;22.02;6.45;;;;;;;-149.78;100.00;50455.81;4783440;29;20539;-67
2022/03/06 10:46:08;;;;;;;5.80;1.83;;;;;;;-149.78;100.00;50418.63;4796603;29;20507;-65
2022/03/06 10:48:34;;;;;;;28.05;6.53;;;;;;;-149.78;100.00;50365.84;4799025;29;20618;-68
2022/03/06 10:51:02;;;;;;;28.70;7.35;;;;;;;-149.78;100.00;50393.22;4798221;29;20038;-68
2022/03/06 10:53:28;;;;;;;13.40;3.97;;;;;;;-149.78;100.00;50391.25;4764634;29;20050;-68
2022/03/06 10:55:54;;;;;;;12.05;2.20;;;;;;;-149.78;100.00;50414.72;4798644;29;20046;-67
2022/03/06 10:58:21;;;;;;;20.98;5.00;;;;;;;-149.78;100.00;50428.41;4797294;29;20039;-68
2022/03/06 11:00:48;;;;;;;18.52;4.63;;;;;;;-149.78;100.00;50426.47;4797000;29;20047;-68